Pagrindinis puslapis
METAR-TAF:

METAR-TAF

Oro uostai :

Džanetas, Alžyras

platuma: 24-33N, ilguma: 009-28E, Aukštis: 1054 m

Dabartinis oras

Ataskaita buvo paskelbta 1 valandą ir 9 minutes, ne 14:00 UTC
Vėjas 10 kt iš Vakarų
Temperatūra 41°C
Slėgis 1014 hPa
Matomumas: 8000 m

METAR: DAAJ 251400Z 28010KT 8000 NSC 41/// Q1014

Laikas: 16:09 (15:09 UTC)

Prognozė

Ataskaita buvo paskelbta 4 valandos ir 9 minutes, ne 11:00 UTC
Prognozė galioja nuo 25 metu 12 UTC su 26 metu 12 UTC
Vėjas 10 kt iš Rytų
Matomumas: 8000 m
Tikimybė 40% :
Laikinai
nuo 25 metu 12 UTC su 25 metu 16 UTC
Matomumas: 3000 m
migla,

TAF: DAAJ 251100Z 2512/2612 08010KT 8000 NSC PROB40 TEMPO 2512/2516 3000 HZ

Orai ataskaitas ir orų prognozės (METAR, TAF).

turimą stotys yra geltonos ir raudonos taškus žemėlapyje.

Perkelti pele per norėdami pamatyti stoties vardą.

Tada spustelėkite, norėdami matyti oro stebėjimo ir prognozės.

Norėdami pakeisti žemėlapį: spustelėkite ant žalios mygtukų su juodo kryžiaus žemyn,; žalią mygtuką su brūkšneliu, jei norite nutolinti; arba žalių rodyklių gretimoms žemėlapius.


METAR-TAF: